createdAt,value
2023-05-24T00:00:45.400Z,20.91
2023-05-24T00:01:44.363Z,20.91
2023-05-24T00:02:44.445Z,20.91
2023-05-24T00:03:45.514Z,20.91
2023-05-24T00:04:44.427Z,20.91
2023-05-24T00:05:45.385Z,20.91
2023-05-24T00:06:45.356Z,20.91
2023-05-24T00:07:45.372Z,20.91
2023-05-24T00:10:03.548Z,20.81
2023-05-24T00:11:15.063Z,20.85
2023-05-24T00:13:22.805Z,20.78
2023-05-24T00:14:23.782Z,20.84
2023-05-24T00:15:22.797Z,20.86
2023-05-24T00:16:23.982Z,20.87
2023-05-24T00:17:23.772Z,20.88
2023-05-24T00:19:41.907Z,20.70
2023-05-24T00:20:43.026Z,20.82
2023-05-24T00:24:12.264Z,20.57
2023-05-24T00:25:13.214Z,20.76
2023-05-24T00:26:13.317Z,20.80
2023-05-24T00:27:12.517Z,20.82
2023-05-24T00:29:32.387Z,20.79
2023-05-24T00:30:32.381Z,20.82
2023-05-24T00:31:32.552Z,20.83
2023-05-24T00:32:31.835Z,20.86
2023-05-24T00:38:19.496Z,20.51
2023-05-24T00:39:20.304Z,20.71
2023-05-24T00:40:19.296Z,20.77
2023-05-24T00:41:20.414Z,20.80
2023-05-24T00:42:20.605Z,20.81
2023-05-24T00:43:20.347Z,20.83
2023-05-24T00:44:20.383Z,20.84
2023-05-24T00:45:20.382Z,20.84
2023-05-24T00:47:38.696Z,20.78
2023-05-24T00:48:39.535Z,20.81
2023-05-24T00:57:42.094Z,20.45
2023-05-24T00:58:42.209Z,20.66
2023-05-24T01:01:01.405Z,20.59
2023-05-24T01:03:23.246Z,20.52
2023-05-24T01:04:24.450Z,20.71
2023-05-24T01:05:24.435Z,20.76
2023-05-24T01:06:24.194Z,20.78
2023-05-24T01:10:39.883Z,20.49
2023-05-24T01:11:40.524Z,20.69
2023-05-24T01:12:40.627Z,20.74
2023-05-24T01:13:39.694Z,20.76
2023-05-24T01:14:39.653Z,20.78
2023-05-24T01:15:39.625Z,20.79
2023-05-24T01:16:40.678Z,20.80
2023-05-24T01:18:59.041Z,20.76
2023-05-24T01:24:03.317Z,20.49
2023-05-24T01:26:23.230Z,20.50
2023-05-24T01:27:22.769Z,20.68
2023-05-24T01:28:24.030Z,20.73
2023-05-24T01:29:23.792Z,20.75
2023-05-24T01:30:22.767Z,20.77
2023-05-24T01:31:23.843Z,20.78
2023-05-24T01:34:58.899Z,20.48
2023-05-24T01:35:59.672Z,20.68
2023-05-24T01:36:59.818Z,20.73
2023-05-24T01:38:00.067Z,20.75
2023-05-24T01:38:59.807Z,20.77
2023-05-24T01:39:59.821Z,20.78
2023-05-24T01:40:59.820Z,20.78
2023-05-24T01:43:17.910Z,20.55
2023-05-24T01:47:48.423Z,20.43
2023-05-24T01:50:39.086Z,20.44
2023-05-24T01:51:40.235Z,20.64
2023-05-24T01:53:58.314Z,20.57
2023-05-24T01:59:34.434Z,20.40
2023-05-24T02:03:07.798Z,20.41
2023-05-24T02:05:26.737Z,20.62
2023-05-24T02:06:27.664Z,20.67
2023-05-24T02:07:26.806Z,20.70
2023-05-24T02:08:26.766Z,20.72
2023-05-24T02:09:27.594Z,20.74
2023-05-24T02:10:26.623Z,20.74
2023-05-24T02:11:26.581Z,20.75
2023-05-24T02:12:27.630Z,20.76
2023-05-24T02:13:26.679Z,20.76
2023-05-24T02:14:27.570Z,20.76
2023-05-24T02:15:26.559Z,20.76
2023-05-24T02:17:57.723Z,20.51
2023-05-24T02:18:58.581Z,20.68
2023-05-24T02:19:57.702Z,20.71
2023-05-24T02:20:58.584Z,20.72
2023-05-24T02:21:58.763Z,20.74
2023-05-24T02:24:16.757Z,20.56
2023-05-24T02:25:16.717Z,20.69
2023-05-24T02:26:17.753Z,20.71
2023-05-24T02:27:16.956Z,20.73
2023-05-24T02:28:17.878Z,20.73
2023-05-24T02:33:25.316Z,20.39
2023-05-24T02:34:26.066Z,20.60
2023-05-24T02:35:25.160Z,20.66
2023-05-24T02:36:26.609Z,20.69
2023-05-24T02:37:25.130Z,20.70
2023-05-24T02:38:26.108Z,20.71
2023-05-24T02:46:26.760Z,20.35
2023-05-24T02:47:26.402Z,20.57
2023-05-24T02:50:49.871Z,20.39
2023-05-24T02:51:49.849Z,20.59
2023-05-24T02:52:49.820Z,20.64
2023-05-24T03:01:15.208Z,20.33
2023-05-24T03:02:16.266Z,20.55
2023-05-24T03:03:16.457Z,20.60
2023-05-24T03:09:32.941Z,20.34
2023-05-24T03:19:39.021Z,20.30
2023-05-24T03:20:39.988Z,20.52
2023-05-24T03:23:13.387Z,20.37
2023-05-24T03:26:42.004Z,20.34
2023-05-24T03:27:41.988Z,20.55
2023-05-24T03:35:58.927Z,20.29
2023-05-24T03:36:59.957Z,20.51
2023-05-24T03:38:00.445Z,20.58
2023-05-24T03:38:59.896Z,20.61
2023-05-24T03:39:59.861Z,20.64
2023-05-24T03:42:58.290Z,20.39
2023-05-24T03:47:16.663Z,20.32
2023-05-24T03:48:17.264Z,20.52
2023-05-24T03:49:17.401Z,20.59
2023-05-24T03:50:17.512Z,20.61
2023-05-24T03:57:55.117Z,20.29
2023-05-24T03:58:56.038Z,20.50
2023-05-24T03:59:56.088Z,20.57
2023-05-24T04:00:56.207Z,20.60
2023-05-24T04:01:56.120Z,20.63
2023-05-24T04:02:55.225Z,20.64
2023-05-24T04:03:56.160Z,20.65
2023-05-24T04:04:56.154Z,20.67
2023-05-24T04:05:55.119Z,20.67
2023-05-24T04:06:56.100Z,20.67
2023-05-24T04:09:43.134Z,20.40
2023-05-24T04:12:01.910Z,20.37
2023-05-24T04:13:02.722Z,20.57
2023-05-24T04:14:01.886Z,20.61
2023-05-24T04:15:02.832Z,20.62
2023-05-24T04:16:03.046Z,20.64
2023-05-24T04:17:03.213Z,20.64
2023-05-24T04:22:53.744Z,20.30
2023-05-24T04:23:54.636Z,20.51
2023-05-24T04:24:53.729Z,20.56
2023-05-24T04:25:54.963Z,20.60
2023-05-24T04:26:54.697Z,20.62
2023-05-24T04:27:54.801Z,20.63
2023-05-24T04:28:54.786Z,20.64
2023-05-24T04:29:53.841Z,20.64
2023-05-24T04:30:54.761Z,20.65
2023-05-24T04:31:53.827Z,20.66
2023-05-24T04:32:54.808Z,20.65
2023-05-24T04:33:54.764Z,20.65
2023-05-24T04:34:54.786Z,20.66
2023-05-24T04:35:54.842Z,20.66
2023-05-24T04:38:13.033Z,20.60
2023-05-24T04:39:13.942Z,20.63
2023-05-24T04:40:14.058Z,20.64
2023-05-24T04:41:12.996Z,20.65
2023-05-24T04:44:40.821Z,20.35
2023-05-24T04:45:41.776Z,20.55
2023-05-24T04:46:40.889Z,20.58
2023-05-24T04:47:41.920Z,20.61
2023-05-24T04:48:41.805Z,20.62
2023-05-24T04:49:41.831Z,20.63
2023-05-24T04:53:05.717Z,20.35
2023-05-24T04:54:06.665Z,20.53
2023-05-24T04:55:06.700Z,20.58
2023-05-24T04:59:53.798Z,20.30
2023-05-24T05:00:53.854Z,20.50
2023-05-24T05:01:54.970Z,20.55
2023-05-24T05:02:54.812Z,20.59
2023-05-24T05:04:01.702Z,20.60
2023-05-24T05:04:54.774Z,20.61
2023-05-24T05:05:54.764Z,20.62
2023-05-24T05:06:54.754Z,20.63
2023-05-24T05:07:54.780Z,20.63
2023-05-24T05:08:54.851Z,20.63
2023-05-24T05:09:54.918Z,20.63
2023-05-24T05:10:54.897Z,20.64
2023-05-24T05:11:55.007Z,20.64
2023-05-24T05:12:53.981Z,20.63
2023-05-24T05:13:54.784Z,20.63
2023-05-24T05:14:54.696Z,20.64
2023-05-24T05:15:53.722Z,20.64
2023-05-24T05:16:54.912Z,20.63
2023-05-24T05:17:54.707Z,20.65
2023-05-24T05:18:53.682Z,20.64
2023-05-24T05:19:53.673Z,20.64
2023-05-24T05:20:54.642Z,20.64
2023-05-24T05:21:54.649Z,20.64
2023-05-24T05:22:54.649Z,20.64
2023-05-24T05:23:54.637Z,20.64
2023-05-24T05:24:53.618Z,20.64
2023-05-24T05:25:54.604Z,20.64
2023-05-24T05:26:54.609Z,20.64
2023-05-24T05:27:54.598Z,20.64
2023-05-24T05:28:54.608Z,20.64
2023-05-24T05:29:55.152Z,20.64
2023-05-24T05:30:53.593Z,20.63
2023-05-24T05:31:53.608Z,20.64
2023-05-24T05:32:53.661Z,20.64
2023-05-24T05:33:54.564Z,20.64
2023-05-24T05:34:54.553Z,20.64
2023-05-24T05:35:55.104Z,20.63
2023-05-24T05:36:53.532Z,20.64
2023-05-24T05:37:53.533Z,20.63
2023-05-24T05:38:54.561Z,20.64
2023-05-24T05:39:53.619Z,20.63
2023-05-24T05:40:55.081Z,20.64
2023-05-24T05:41:53.503Z,20.63
2023-05-24T05:42:54.557Z,20.63
2023-05-24T05:43:54.492Z,20.64
2023-05-24T05:44:54.520Z,20.63
2023-05-24T05:45:54.544Z,20.63
2023-05-24T05:46:54.534Z,20.63
2023-05-24T05:47:53.634Z,20.63
2023-05-24T05:48:54.590Z,20.64
2023-05-24T05:49:54.564Z,20.63
2023-05-24T05:50:54.571Z,20.63
2023-05-24T05:51:54.611Z,20.63
2023-05-24T05:52:54.605Z,20.63
2023-05-24T05:53:54.615Z,20.63
2023-05-24T05:54:54.616Z,20.64
2023-05-24T05:55:54.607Z,20.63
2023-05-24T05:56:54.589Z,20.63
2023-05-24T05:57:54.613Z,20.63
2023-05-24T05:58:54.598Z,20.64
2023-05-24T05:59:53.594Z,20.63
2023-05-24T06:00:53.568Z,20.63
2023-05-24T06:01:53.572Z,20.63
2023-05-24T06:02:54.722Z,20.63
2023-05-24T06:03:54.687Z,20.63
2023-05-24T06:04:54.749Z,20.64
2023-05-24T06:05:54.641Z,20.63
2023-05-24T06:06:54.633Z,20.63
2023-05-24T06:07:54.648Z,20.63
2023-05-24T06:08:54.657Z,20.63
2023-05-24T06:09:54.700Z,20.63
2023-05-24T06:10:54.726Z,20.63
2023-05-24T06:11:54.829Z,20.64
2023-05-24T06:12:54.761Z,20.64
2023-05-24T06:13:54.741Z,20.64
2023-05-24T06:14:53.741Z,20.64
2023-05-24T06:15:54.779Z,20.64
2023-05-24T06:16:55.150Z,20.64
2023-05-24T06:17:53.822Z,20.64
2023-05-24T06:19:05.217Z,20.64
2023-05-24T06:19:54.844Z,20.64
2023-05-24T06:20:54.838Z,20.64
2023-05-24T06:21:54.804Z,20.64
2023-05-24T06:22:54.913Z,20.64
2023-05-24T06:23:54.918Z,20.65
2023-05-24T06:24:54.816Z,20.65
2023-05-24T06:25:53.840Z,20.66
2023-05-24T06:26:54.758Z,20.65
2023-05-24T06:27:54.743Z,20.65
2023-05-24T06:28:54.770Z,20.66
2023-05-24T06:29:54.757Z,20.66
2023-05-24T06:30:54.757Z,20.66
2023-05-24T06:31:54.799Z,20.65
2023-05-24T06:32:54.739Z,20.66
2023-05-24T06:34:04.022Z,20.67
2023-05-24T06:34:54.700Z,20.65
2023-05-24T06:35:53.685Z,20.66
2023-05-24T06:36:53.714Z,20.67
2023-05-24T06:37:54.655Z,20.67
2023-05-24T06:38:54.668Z,20.67
2023-05-24T06:39:54.643Z,20.67
2023-05-24T06:40:54.627Z,20.68
2023-05-24T06:41:54.650Z,20.67
2023-05-24T06:42:54.635Z,20.68
2023-05-24T06:43:53.654Z,20.68
2023-05-24T06:44:54.661Z,20.68
2023-05-24T06:45:53.613Z,20.68
2023-05-24T06:46:54.668Z,20.68
2023-05-24T06:47:54.639Z,20.68
2023-05-24T06:48:54.758Z,20.68
2023-05-24T06:49:53.563Z,20.68
2023-05-24T06:50:54.565Z,20.68
2023-05-24T06:51:53.545Z,20.68
2023-05-24T06:52:54.602Z,20.68
2023-05-24T06:53:54.542Z,20.68
2023-05-24T06:54:53.712Z,20.68
2023-05-24T06:55:55.495Z,20.68
2023-05-24T06:56:53.521Z,20.68
2023-05-24T06:57:54.528Z,20.68
2023-05-24T06:58:54.503Z,20.67
2023-05-24T06:59:54.700Z,20.68
2023-05-24T07:00:54.543Z,20.68
2023-05-24T07:01:53.543Z,20.68
2023-05-24T07:02:54.523Z,20.68
2023-05-24T07:03:54.486Z,20.68
2023-05-24T07:04:54.594Z,20.68
2023-05-24T07:05:54.476Z,20.68
2023-05-24T07:06:53.444Z,20.67
2023-05-24T07:07:54.430Z,20.68
2023-05-24T07:08:53.499Z,20.68
2023-05-24T07:09:54.419Z,20.68
2023-05-24T07:10:54.403Z,20.68
2023-05-24T07:11:53.422Z,20.68
2023-05-24T07:12:54.407Z,20.68
2023-05-24T07:13:54.436Z,20.68
2023-05-24T07:14:54.389Z,20.67
2023-05-24T07:15:54.363Z,20.68
2023-05-24T07:16:54.411Z,20.68
2023-05-24T07:17:54.368Z,20.69
2023-05-24T07:18:54.340Z,20.68
2023-05-24T07:19:54.365Z,20.68
2023-05-24T07:20:54.345Z,20.68
2023-05-24T07:21:53.316Z,20.68
2023-05-24T07:22:53.306Z,20.69
2023-05-24T07:23:54.314Z,20.68
2023-05-24T07:24:53.354Z,20.69
2023-05-24T07:25:54.273Z,20.69
2023-05-24T07:26:53.280Z,20.69
2023-05-24T07:27:54.294Z,20.69
2023-05-24T07:28:53.268Z,20.69
2023-05-24T07:29:54.285Z,20.68
2023-05-24T07:30:54.260Z,20.69
2023-05-24T07:31:54.310Z,20.69
2023-05-24T07:32:54.277Z,20.69
2023-05-24T07:33:53.235Z,20.70
2023-05-24T07:34:54.229Z,20.69
2023-05-24T07:35:53.208Z,20.69
2023-05-24T07:36:54.204Z,20.69
2023-05-24T07:37:53.201Z,20.69
2023-05-24T07:38:54.192Z,20.69
2023-05-24T07:39:53.185Z,20.69
2023-05-24T07:40:54.237Z,20.69
2023-05-24T07:41:53.163Z,20.70
2023-05-24T07:42:54.159Z,20.70
2023-05-24T07:43:54.153Z,20.70
2023-05-24T07:44:54.213Z,20.70
2023-05-24T07:45:54.378Z,20.70
2023-05-24T07:46:54.332Z,20.69
2023-05-24T07:47:56.686Z,20.70
2023-05-24T07:48:54.327Z,20.69
2023-05-24T07:49:54.711Z,20.70
2023-05-24T07:50:54.213Z,20.70
2023-05-24T07:51:54.295Z,20.70
2023-05-24T07:52:54.316Z,20.70
2023-05-24T07:53:53.280Z,20.70
2023-05-24T07:54:53.264Z,20.71
2023-05-24T07:55:54.265Z,20.77
2023-05-24T07:56:54.420Z,20.82
2023-05-24T07:57:53.267Z,20.83
2023-05-24T07:58:54.245Z,20.84
2023-05-24T07:59:53.229Z,20.87
2023-05-24T08:00:54.243Z,20.92
2023-05-24T08:01:53.256Z,20.96
2023-05-24T08:02:54.274Z,21.00
2023-05-24T08:03:53.377Z,21.04
2023-05-24T08:04:54.212Z,21.06
2023-05-24T08:05:53.195Z,21.08
2023-05-24T08:06:53.234Z,21.09
2023-05-24T08:07:53.176Z,21.11
2023-05-24T08:08:53.170Z,21.12
2023-05-24T08:09:54.175Z,21.15
2023-05-24T08:10:54.218Z,21.16
2023-05-24T08:11:53.239Z,21.17
2023-05-24T08:12:54.359Z,21.19
2023-05-24T08:13:54.359Z,21.22
2023-05-24T08:14:54.400Z,21.24
2023-05-24T08:15:54.514Z,21.26
2023-05-24T08:16:54.548Z,21.26
2023-05-24T08:17:54.590Z,21.28
2023-05-24T08:18:55.479Z,21.31
2023-05-24T08:19:53.656Z,21.31
2023-05-24T08:20:54.652Z,21.30
2023-05-24T08:21:53.699Z,21.31
2023-05-24T08:22:53.733Z,21.33
2023-05-24T08:23:53.796Z,21.38
2023-05-24T08:24:54.821Z,21.42
2023-05-24T08:25:54.855Z,21.46
2023-05-24T08:26:54.900Z,21.47
2023-05-24T08:27:54.964Z,21.49
2023-05-24T08:28:55.068Z,21.50
2023-05-24T08:29:56.915Z,21.49
2023-05-24T08:30:55.021Z,21.47
2023-05-24T08:31:54.113Z,21.47
2023-05-24T08:32:55.036Z,21.46
2023-05-24T08:33:54.017Z,21.48
2023-05-24T08:35:03.441Z,21.49
2023-05-24T08:35:55.017Z,21.48
2023-05-24T08:36:55.002Z,21.47
2023-05-24T08:37:54.977Z,21.46
2023-05-24T08:38:54.969Z,21.49
2023-05-24T08:39:53.965Z,21.52
2023-05-24T08:40:54.945Z,21.55
2023-05-24T08:42:08.808Z,21.55
2023-05-24T08:42:54.952Z,21.54
2023-05-24T08:43:54.936Z,21.53
2023-05-24T08:44:55.257Z,21.55
2023-05-24T08:45:53.916Z,21.55
2023-05-24T08:46:53.916Z,21.55
2023-05-24T08:47:54.106Z,21.53
2023-05-24T08:48:54.951Z,21.54
2023-05-24T08:49:54.904Z,21.55
2023-05-24T08:50:54.886Z,21.55
2023-05-24T08:51:54.894Z,21.54
2023-05-24T08:52:53.872Z,21.53
2023-05-24T08:53:53.863Z,21.52
2023-05-24T08:54:55.236Z,21.52
2023-05-24T08:55:53.840Z,21.52
2023-05-24T08:56:53.849Z,21.52
2023-05-24T08:57:54.840Z,21.53
2023-05-24T08:58:53.853Z,21.53
2023-05-24T08:59:53.831Z,21.53
2023-05-24T09:00:54.976Z,21.53
2023-05-24T09:01:54.889Z,21.54
2023-05-24T09:02:53.848Z,21.55
2023-05-24T09:03:54.842Z,21.58
2023-05-24T09:04:53.786Z,21.60
2023-05-24T09:05:54.778Z,21.60
2023-05-24T09:06:54.778Z,21.61
2023-05-24T09:07:54.771Z,21.62
2023-05-24T09:08:53.745Z,21.63
2023-05-24T09:09:53.782Z,21.64
2023-05-24T09:10:55.954Z,21.63
2023-05-24T09:11:53.737Z,21.62
2023-05-24T09:12:54.784Z,21.61
2023-05-24T09:13:54.812Z,21.61
2023-05-24T09:14:53.870Z,21.60
2023-05-24T09:15:53.987Z,21.60
2023-05-24T09:16:53.992Z,21.60
2023-05-24T09:17:55.040Z,21.61
2023-05-24T09:18:55.052Z,21.65
2023-05-24T09:19:55.146Z,21.69
2023-05-24T09:20:55.267Z,21.70
2023-05-24T09:21:55.205Z,21.70
2023-05-24T09:22:55.256Z,21.70
2023-05-24T09:23:54.297Z,21.71
2023-05-24T09:24:55.371Z,21.71
2023-05-24T09:25:55.412Z,21.70
2023-05-24T09:26:54.450Z,21.72
2023-05-24T09:27:55.522Z,21.73
2023-05-24T09:28:55.544Z,21.75
2023-05-24T09:29:54.580Z,21.73
2023-05-24T09:30:54.677Z,21.71
2023-05-24T09:31:54.737Z,21.69
2023-05-24T09:32:54.836Z,21.68
2023-05-24T09:33:54.817Z,21.68
2023-05-24T09:34:55.892Z,21.67
2023-05-24T09:35:55.914Z,21.67
2023-05-24T09:36:56.071Z,21.67
2023-05-24T09:37:56.024Z,21.66
2023-05-24T09:38:56.067Z,21.65
2023-05-24T09:39:56.137Z,21.63
2023-05-24T09:40:56.156Z,21.63
2023-05-24T09:41:55.205Z,21.62
2023-05-24T09:42:56.287Z,21.62
2023-05-24T09:43:55.284Z,21.60
2023-05-24T09:44:55.331Z,21.60
2023-05-24T09:45:56.371Z,21.61
2023-05-24T09:46:56.413Z,21.61
2023-05-24T09:47:56.538Z,21.60
2023-05-24T09:48:56.558Z,21.61
2023-05-24T09:49:55.555Z,21.59
2023-05-24T09:50:56.756Z,21.57
2023-05-24T09:51:55.669Z,21.53
2023-05-24T09:52:56.696Z,21.49
2023-05-24T09:53:55.749Z,21.47
2023-05-24T09:54:55.791Z,21.44
2023-05-24T09:55:56.896Z,21.43
2023-05-24T09:56:56.885Z,21.41
2023-05-24T09:57:56.946Z,21.40
2023-05-24T09:58:56.988Z,21.38
2023-05-24T09:59:57.025Z,21.37
2023-05-24T10:00:56.114Z,21.36
2023-05-24T10:01:57.099Z,21.36
2023-05-24T10:02:56.171Z,21.35
2023-05-24T10:03:57.354Z,21.35
2023-05-24T10:04:57.323Z,21.33
2023-05-24T10:05:56.332Z,21.33
2023-05-24T10:06:56.382Z,21.31
2023-05-24T10:07:56.387Z,21.31
2023-05-24T10:08:57.435Z,21.29
2023-05-24T10:09:57.658Z,21.29
2023-05-24T10:10:56.523Z,21.28
2023-05-24T10:11:57.585Z,21.29
2023-05-24T10:12:56.622Z,21.28
2023-05-24T10:13:57.662Z,21.28
2023-05-24T10:14:57.727Z,21.28
2023-05-24T10:15:57.778Z,21.27
2023-05-24T10:16:57.852Z,21.26
2023-05-24T10:17:57.883Z,21.26
2023-05-24T10:18:56.916Z,21.26
2023-05-24T10:19:58.032Z,21.25
2023-05-24T10:20:57.172Z,21.24
2023-05-24T10:21:58.065Z,21.25
2023-05-24T10:22:57.094Z,21.24
2023-05-24T10:23:58.167Z,21.24
2023-05-24T10:24:58.188Z,21.23
2023-05-24T10:25:58.216Z,21.22
2023-05-24T10:26:58.265Z,21.21
2023-05-24T10:27:58.311Z,21.21
2023-05-24T10:28:58.342Z,21.22
2023-05-24T10:29:58.362Z,21.21
2023-05-24T10:30:58.458Z,21.20
2023-05-24T10:31:58.473Z,21.20
2023-05-24T10:32:58.531Z,21.19
2023-05-24T10:34:06.537Z,21.19
2023-05-24T10:34:58.548Z,21.17
2023-05-24T10:35:58.553Z,21.16
2023-05-24T10:36:58.572Z,21.16
2023-05-24T10:37:58.515Z,21.16
2023-05-24T10:38:57.498Z,21.16
2023-05-24T10:39:58.565Z,21.16
2023-05-24T10:40:57.505Z,21.15
2023-05-24T10:41:57.496Z,21.14
2023-05-24T10:42:58.479Z,21.14
2023-05-24T10:44:09.257Z,21.13
2023-05-24T10:44:58.473Z,21.13
2023-05-24T10:45:58.473Z,21.12
2023-05-24T10:46:58.448Z,21.12
2023-05-24T10:47:58.572Z,21.11
2023-05-24T10:48:58.454Z,21.12
2023-05-24T10:49:58.421Z,21.11
2023-05-24T10:50:58.435Z,21.10
2023-05-24T10:51:58.447Z,21.10
2023-05-24T10:52:58.410Z,21.08
2023-05-24T10:53:58.382Z,21.09
2023-05-24T10:55:03.792Z,21.08
2023-05-24T10:55:58.393Z,21.07
2023-05-24T10:56:58.367Z,21.08
2023-05-24T10:57:58.364Z,21.08
2023-05-24T10:58:58.353Z,21.07
2023-05-24T10:59:58.346Z,21.06
2023-05-24T11:00:57.381Z,21.05
2023-05-24T11:01:58.396Z,21.05
2023-05-24T11:02:58.360Z,21.05
2023-05-24T11:03:58.332Z,21.05
2023-05-24T11:04:58.337Z,21.03
2023-05-24T11:05:57.432Z,21.03
2023-05-24T11:06:58.326Z,21.03
2023-05-24T11:07:57.364Z,21.03
2023-05-24T11:08:58.262Z,21.03
2023-05-24T11:09:57.281Z,21.03
2023-05-24T11:11:00.404Z,21.02
2023-05-24T11:11:58.247Z,21.02
2023-05-24T11:12:58.236Z,21.01
2023-05-24T11:13:57.424Z,21.01
2023-05-24T11:14:58.215Z,21.01
2023-05-24T11:15:57.259Z,21.01
2023-05-24T11:16:58.223Z,21.01
2023-05-24T11:17:58.271Z,21.00
2023-05-24T11:18:58.204Z,21.01
2023-05-24T11:19:57.214Z,20.99
2023-05-24T11:20:58.176Z,20.99
2023-05-24T11:21:57.177Z,20.99
2023-05-24T11:22:57.186Z,20.99
2023-05-24T11:23:58.325Z,20.99
2023-05-24T11:24:58.171Z,20.99
2023-05-24T11:25:58.153Z,20.99
2023-05-24T11:26:58.137Z,20.97
2023-05-24T11:27:57.178Z,20.98
2023-05-24T11:28:57.136Z,20.97
2023-05-24T11:29:57.126Z,20.97
2023-05-24T11:30:58.114Z,20.96
2023-05-24T11:31:57.122Z,20.97
2023-05-24T11:32:57.190Z,20.96
2023-05-24T11:33:57.103Z,20.96
2023-05-24T11:34:58.097Z,20.96
2023-05-24T11:35:58.164Z,20.95
2023-05-24T11:36:58.235Z,20.95
2023-05-24T11:37:57.294Z,20.95
2023-05-24T11:38:58.357Z,20.94
2023-05-24T11:39:57.436Z,20.94
2023-05-24T11:40:58.496Z,20.94
2023-05-24T11:41:57.548Z,20.94
2023-05-24T11:42:58.622Z,20.93
2023-05-24T11:43:57.690Z,20.93
2023-05-24T11:44:57.716Z,20.94
2023-05-24T11:45:57.891Z,20.93
2023-05-24T11:46:58.863Z,20.93
2023-05-24T11:47:57.938Z,20.92
2023-05-24T11:48:58.970Z,20.92
2023-05-24T11:49:58.022Z,20.92
2023-05-24T11:50:58.096Z,20.92
2023-05-24T11:51:59.142Z,20.91
2023-05-24T11:52:59.203Z,20.91
2023-05-24T11:53:58.259Z,20.91
2023-05-24T11:54:58.326Z,20.90
2023-05-24T11:55:59.375Z,20.90
2023-05-24T11:56:59.413Z,20.89
2023-05-24T11:57:59.445Z,20.89
2023-05-24T11:58:59.504Z,20.89
2023-05-24T11:59:59.575Z,20.89
2023-05-24T12:00:58.628Z,20.89
2023-05-24T12:01:59.718Z,20.89
2023-05-24T12:02:58.883Z,20.89
2023-05-24T12:03:59.901Z,20.88
2023-05-24T12:05:00.064Z,20.88
2023-05-24T12:05:59.958Z,20.88
2023-05-24T12:06:58.993Z,20.89
2023-05-24T12:08:00.092Z,20.89
2023-05-24T12:09:00.125Z,20.94
2023-05-24T12:10:00.230Z,20.95
2023-05-24T12:11:00.240Z,20.97
2023-05-24T12:11:59.355Z,21.02
2023-05-24T12:13:00.346Z,21.08
2023-05-24T12:14:00.424Z,21.13
2023-05-24T12:15:00.467Z,21.18
2023-05-24T12:15:59.556Z,21.21
2023-05-24T12:16:59.578Z,21.28
2023-05-24T12:17:59.604Z,21.35
2023-05-24T12:19:05.204Z,21.41
2023-05-24T12:20:00.675Z,21.46
2023-05-24T12:21:00.595Z,21.48
2023-05-24T12:22:00.670Z,21.51
2023-05-24T12:23:00.570Z,21.51
2023-05-24T12:24:00.567Z,21.52
2023-05-24T12:25:00.554Z,21.55
2023-05-24T12:26:00.579Z,21.58
2023-05-24T12:27:00.557Z,21.57
2023-05-24T12:27:59.685Z,21.59
2023-05-24T12:28:59.543Z,21.61
2023-05-24T12:30:00.542Z,21.63
2023-05-24T12:31:00.564Z,21.63
2023-05-24T12:32:00.517Z,21.65
2023-05-24T12:33:00.564Z,21.68
2023-05-24T12:33:59.521Z,21.71
2023-05-24T12:35:00.500Z,21.73
2023-05-24T12:35:59.513Z,21.75
2023-05-24T12:37:00.483Z,21.79
2023-05-24T12:38:00.464Z,21.81
2023-05-24T12:39:00.455Z,21.84
2023-05-24T12:39:59.453Z,21.89
2023-05-24T12:41:12.304Z,21.94
2023-05-24T12:42:00.434Z,21.96
2023-05-24T12:42:59.441Z,22.01
2023-05-24T12:43:59.446Z,22.03
2023-05-24T12:44:59.429Z,22.08
2023-05-24T12:46:00.428Z,22.12
2023-05-24T12:47:00.450Z,22.17
2023-05-24T12:47:59.505Z,22.20
2023-05-24T12:49:00.386Z,22.21
2023-05-24T12:50:00.450Z,22.23
2023-05-24T12:50:59.483Z,22.23
2023-05-24T12:51:59.490Z,22.22
2023-05-24T12:52:59.576Z,22.21
2023-05-24T12:54:00.642Z,22.22
2023-05-24T12:54:59.709Z,22.25
2023-05-24T12:55:59.816Z,22.26
2023-05-24T12:57:00.021Z,22.28
2023-05-24T12:57:59.864Z,22.29
2023-05-24T12:59:00.940Z,22.32
2023-05-24T13:00:00.995Z,22.35
2023-05-24T13:01:01.075Z,22.38
2023-05-24T13:02:01.096Z,22.37
2023-05-24T13:03:01.241Z,22.36
2023-05-24T13:04:01.230Z,22.37
2023-05-24T13:05:01.347Z,22.40
2023-05-24T13:06:01.388Z,22.39
2023-05-24T13:07:00.489Z,22.38
2023-05-24T13:08:00.458Z,22.36
2023-05-24T13:09:00.528Z,22.36
2023-05-24T13:10:01.569Z,22.35
2023-05-24T13:11:00.667Z,22.34
2023-05-24T13:12:01.714Z,22.33
2023-05-24T13:13:00.767Z,22.32
2023-05-24T13:14:00.816Z,22.31
2023-05-24T13:15:01.887Z,22.30
2023-05-24T13:16:00.995Z,22.30
2023-05-24T13:17:02.124Z,22.29
2023-05-24T13:18:01.096Z,22.27
2023-05-24T13:19:01.095Z,22.28
2023-05-24T13:20:01.212Z,22.29
2023-05-24T13:21:02.258Z,22.29
2023-05-24T13:22:02.277Z,22.27
2023-05-24T13:23:01.336Z,22.30
2023-05-24T13:24:01.429Z,22.33
2023-05-24T13:25:02.490Z,22.35
2023-05-24T13:26:02.538Z,22.35
2023-05-24T13:27:02.622Z,22.32
2023-05-24T13:28:01.666Z,22.31
2023-05-24T13:30:01.981Z,22.31
2023-05-24T13:31:02.682Z,22.31
2023-05-24T13:32:01.674Z,22.30
2023-05-24T13:33:02.739Z,22.29
2023-05-24T13:34:02.650Z,22.28
2023-05-24T13:35:01.732Z,22.26
2023-05-24T13:36:01.646Z,22.26
2023-05-24T13:37:02.692Z,22.21
2023-05-24T13:38:02.629Z,22.19
2023-05-24T13:39:14.969Z,22.19
2023-05-24T13:40:02.622Z,22.18
2023-05-24T13:41:02.592Z,22.17
2023-05-24T13:42:01.628Z,22.18
2023-05-24T13:43:01.662Z,22.19
2023-05-24T13:44:02.576Z,22.17
2023-05-24T13:45:02.586Z,22.18
2023-05-24T13:46:02.576Z,22.18
2023-05-24T13:47:01.711Z,22.18
2023-05-24T13:48:02.595Z,22.17
2023-05-24T13:49:02.549Z,22.17
2023-05-24T13:50:02.540Z,22.15
2023-05-24T13:51:01.519Z,22.14
2023-05-24T13:52:02.528Z,22.12
2023-05-24T13:53:01.522Z,22.09
2023-05-24T13:54:01.492Z,22.08
2023-05-24T13:55:02.535Z,22.05
2023-05-24T13:56:02.493Z,22.03
2023-05-24T13:57:02.477Z,22.00
2023-05-24T13:58:02.487Z,21.97
2023-05-24T13:59:01.594Z,21.95
2023-05-24T14:00:02.579Z,21.92
2023-05-24T14:01:02.478Z,21.91
2023-05-24T14:02:02.478Z,21.89
2023-05-24T14:03:02.478Z,21.86
2023-05-24T14:04:01.467Z,21.84
2023-05-24T14:05:17.474Z,21.83
2023-05-24T14:06:02.452Z,21.80
2023-05-24T14:07:02.437Z,21.78
2023-05-24T14:08:01.464Z,21.77
2023-05-24T14:09:02.406Z,21.75
2023-05-24T14:10:02.469Z,21.74
2023-05-24T14:11:02.383Z,21.72
2023-05-24T14:12:01.391Z,21.71
2023-05-24T14:15:01.351Z,21.68
2023-05-24T14:16:01.436Z,21.67
2023-05-24T14:17:02.441Z,21.65
2023-05-24T14:18:02.356Z,21.65
2023-05-24T14:19:02.313Z,21.63
2023-05-24T14:20:02.456Z,21.62
2023-05-24T14:21:02.318Z,21.61
2023-05-24T14:22:01.293Z,21.59
2023-05-24T14:23:02.281Z,21.59
2023-05-24T14:24:01.271Z,21.58
2023-05-24T14:25:02.264Z,21.56
2023-05-24T14:26:02.252Z,21.56
2023-05-24T14:27:02.260Z,21.55
2023-05-24T14:28:01.245Z,21.53
2023-05-24T14:29:01.231Z,21.53
2023-05-24T14:30:01.333Z,21.52
2023-05-24T14:31:02.236Z,21.51
2023-05-24T14:32:01.266Z,21.50
2023-05-24T14:33:02.236Z,21.49
2023-05-24T14:34:01.214Z,21.48
2023-05-24T14:35:02.217Z,21.48
2023-05-24T14:36:02.246Z,21.47
2023-05-24T14:37:02.181Z,21.47
2023-05-24T14:38:01.205Z,21.46
2023-05-24T14:39:01.174Z,21.45
2023-05-24T14:40:02.297Z,21.44
2023-05-24T14:41:01.155Z,21.43
2023-05-24T14:42:02.167Z,21.43
2023-05-24T14:43:01.148Z,21.42
2023-05-24T14:44:02.150Z,21.41
2023-05-24T14:45:02.168Z,21.41
2023-05-24T14:46:02.160Z,21.40
2023-05-24T14:47:02.120Z,21.39
2023-05-24T14:48:02.146Z,21.39
2023-05-24T14:49:01.110Z,21.39
2023-05-24T14:50:02.099Z,21.38
2023-05-24T14:51:02.110Z,21.37
2023-05-24T14:52:02.124Z,21.36
2023-05-24T14:53:02.076Z,21.36
2023-05-24T14:54:02.078Z,21.36
2023-05-24T14:55:01.077Z,21.35
2023-05-24T14:56:02.095Z,21.34
2023-05-24T14:57:02.381Z,21.33
2023-05-24T14:58:01.022Z,21.33
2023-05-24T14:59:02.023Z,21.32
2023-05-24T15:00:02.154Z,21.31
2023-05-24T15:01:02.178Z,21.31
2023-05-24T15:02:02.140Z,21.31
2023-05-24T15:03:02.240Z,21.30
2023-05-24T15:04:02.157Z,21.30
2023-05-24T15:05:02.206Z,21.29
2023-05-24T15:06:02.225Z,21.29
2023-05-24T15:07:02.264Z,21.28
2023-05-24T15:08:02.323Z,21.28
2023-05-24T15:09:02.333Z,21.28